KPKB

Mid-Ohio Valley Regional Airport

Parkersburg, West Virginia, USA
METAR KPKB 231053Z 21006KT 10SM CLR 08/01 A3015 RMK AO2 SLP209 T00780011
Observed Flight Rules
Oct-23 @ 10:53 UTC (57 minutes ago) Visual Flight Rules
Wind Visibility Clouds
210° at 6 knots 10 miles
  • Clear skies
Temperatures Readings
Current 8°C / 46°F
Dewpoint 1°C / 34°F
Humidity 62%
Altimeter 30.15" Hg
Pressure 1020.9 hPa
Elevation 262
METAR KPKB 231053Z 21006KT 10SM CLR 08/01 A3015 RMK AO2 SLP209 T00780011
Observed Flight Rules
Oct-23 @ 10:53 UTC
(57 minutes ago)
VFR
Wind Visibility
210° at 6 knots 10 miles
Clouds
  • Clear skies
Temperature Dewpoint
8°C / 46°F 1°C / 34°F
Humidity Altimeter Pressure
62% 30.15" Hg 1020.9 hPa